createdAt,value
2019-06-07T00:00:27.358Z,10.13
2019-06-07T00:02:35.559Z,9.70
2019-06-07T00:05:07.728Z,10.53
2019-06-07T00:07:36.081Z,10.57
2019-06-07T00:10:06.899Z,11.23
2019-06-07T00:12:35.568Z,11.33
2019-06-07T00:15:05.380Z,11.20
2019-06-07T00:17:33.807Z,10.53
2019-06-07T00:20:02.237Z,11.53
2019-06-07T00:22:33.426Z,11.90
2019-06-07T00:25:00.904Z,11.07
2019-06-07T00:27:29.411Z,11.03
2019-06-07T00:29:57.895Z,10.73
2019-06-07T00:32:26.301Z,10.30
2019-06-07T00:34:54.760Z,10.23
2019-06-07T00:37:25.517Z,10.37
2019-06-07T00:40:13.227Z,10.57
2019-06-07T00:42:24.263Z,10.90
2019-06-07T00:44:53.104Z,11.07
2019-06-07T00:47:23.696Z,10.80
2019-06-07T00:49:51.745Z,10.73
2019-06-07T00:53:11.604Z,11.87
2019-06-07T00:54:50.478Z,11.60
2019-06-07T00:57:19.866Z,11.33
2019-06-07T00:59:49.134Z,11.10
2019-06-07T01:02:19.224Z,10.47
2019-06-07T01:04:47.919Z,10.87
2019-06-07T01:07:18.354Z,10.13
2019-06-07T01:09:46.463Z,10.77
2019-06-07T01:12:19.487Z,10.77
2019-06-07T01:14:45.146Z,10.93
2019-06-07T01:17:29.124Z,11.30
2019-06-07T01:19:46.800Z,11.37
2019-06-07T01:22:16.476Z,12.40
2019-06-07T01:24:45.397Z,11.53
2019-06-07T01:27:13.903Z,12.13
2019-06-07T01:29:42.359Z,11.20
2019-06-07T01:32:10.798Z,11.67
2019-06-07T01:34:39.259Z,12.40
2019-06-07T01:37:07.749Z,11.63
2019-06-07T01:39:36.208Z,12.33
2019-06-07T01:42:04.799Z,12.33
2019-06-07T01:44:33.376Z,12.03
2019-06-07T01:47:01.886Z,12.07
2019-06-07T01:49:30.370Z,12.30
2019-06-07T01:51:58.781Z,11.47
2019-06-07T01:54:52.190Z,11.70
2019-06-07T01:56:57.402Z,11.87
2019-06-07T01:59:28.457Z,11.03
2019-06-07T02:01:55.965Z,12.90
2019-06-07T02:04:27.355Z,11.93
2019-06-07T02:06:54.574Z,12.07
2019-06-07T02:09:23.572Z,12.73
2019-06-07T02:11:53.180Z,11.67
2019-06-07T02:14:25.353Z,12.53
2019-06-07T02:16:51.821Z,13.20
2019-06-07T02:19:21.870Z,12.63
2019-06-07T02:21:50.653Z,13.37
2019-06-07T02:24:21.312Z,13.57
2019-06-07T02:26:49.323Z,12.80
2019-06-07T02:29:17.760Z,12.47
2019-06-07T02:31:46.201Z,12.50
2019-06-07T02:34:14.635Z,13.67
2019-06-07T02:36:43.105Z,11.70
2019-06-07T02:39:11.588Z,13.07
2019-06-07T02:41:40.642Z,13.00
2019-06-07T02:44:09.082Z,12.13
2019-06-07T02:46:46.594Z,13.60
2019-06-07T02:49:07.679Z,14.03
2019-06-07T02:51:41.664Z,13.00
2019-06-07T02:54:06.383Z,14.93
2019-06-07T02:56:48.810Z,13.80
2019-06-07T02:59:05.202Z,12.33
2019-06-07T03:01:41.172Z,13.87
2019-06-07T03:04:05.904Z,14.13
2019-06-07T03:06:39.516Z,13.60
2019-06-07T03:09:07.862Z,13.50
2019-06-07T03:11:39.371Z,14.20
2019-06-07T03:14:09.254Z,16.27
2019-06-07T03:16:40.198Z,16.30
2019-06-07T03:19:10.391Z,15.13
2019-06-07T03:21:41.639Z,14.97
2019-06-07T03:24:10.465Z,15.13
2019-06-07T03:27:30.524Z,15.60
2019-06-07T03:29:09.221Z,15.93
2019-06-07T03:31:43.436Z,15.83
2019-06-07T03:34:07.812Z,15.00
2019-06-07T03:36:39.222Z,15.43
2019-06-07T03:39:06.899Z,15.90
2019-06-07T03:41:43.864Z,14.70
2019-06-07T03:44:05.490Z,16.13
2019-06-07T03:46:36.214Z,15.70
2019-06-07T03:49:04.176Z,14.50
2019-06-07T03:51:34.887Z,15.07
2019-06-07T03:54:02.761Z,15.70
2019-06-07T03:56:32.914Z,16.40
2019-06-07T03:59:01.527Z,15.57
2019-06-07T04:01:30.291Z,16.83
2019-06-07T04:04:00.117Z,15.20
2019-06-07T04:06:31.003Z,16.40
2019-06-07T04:08:58.696Z,15.10
2019-06-07T04:11:27.807Z,18.07
2019-06-07T04:13:56.252Z,17.77
2019-06-07T04:16:24.714Z,17.03
2019-06-07T04:18:53.139Z,17.53
2019-06-07T04:21:21.581Z,18.50
2019-06-07T04:23:50.024Z,18.20
2019-06-07T04:26:18.447Z,16.73
2019-06-07T04:31:17.044Z,19.10
2019-06-07T04:33:45.505Z,19.33
2019-06-07T04:36:14.323Z,20.17
2019-06-07T04:38:43.895Z,19.03
2019-06-07T04:41:13.826Z,20.07
2019-06-07T04:43:43.057Z,18.67
2019-06-07T04:46:13.083Z,19.40
2019-06-07T04:48:44.000Z,20.83
2019-06-07T04:51:14.475Z,20.77
2019-06-07T04:53:43.515Z,20.43
2019-06-07T04:56:12.238Z,19.93
2019-06-07T04:58:41.475Z,20.67
2019-06-07T05:01:26.333Z,20.73
2019-06-07T05:03:44.158Z,20.10
2019-06-07T05:06:10.697Z,20.50
2019-06-07T05:08:43.632Z,19.97
2019-06-07T05:11:09.467Z,18.27
2019-06-07T05:13:40.419Z,19.07
2019-06-07T05:16:08.227Z,18.30
2019-06-07T05:18:40.222Z,18.07
2019-06-07T05:21:06.790Z,17.57
2019-06-07T05:24:05.252Z,18.03
2019-06-07T05:26:05.394Z,14.60
2019-06-07T05:28:35.118Z,15.00
2019-06-07T05:31:07.376Z,17.47
2019-06-07T05:33:36.594Z,17.90
2019-06-07T05:36:04.676Z,16.50
2019-06-07T05:38:33.502Z,15.90
2019-06-07T05:41:02.029Z,15.43
2019-06-07T05:43:35.032Z,13.83
2019-06-07T05:46:01.134Z,13.60
2019-06-07T05:48:29.566Z,11.27
2019-06-07T05:50:58.109Z,5.93
2019-06-07T05:53:26.509Z,8.77
2019-06-07T05:55:54.938Z,7.70
2019-06-07T05:58:23.373Z,6.50
2019-06-07T06:00:51.816Z,7.00
2019-06-07T06:03:20.240Z,6.77
2019-06-07T06:05:54.987Z,4.67
2019-06-07T06:08:18.910Z,4.40
2019-06-07T06:10:48.836Z,4.10
2019-06-07T06:13:17.442Z,3.93
2019-06-07T06:16:00.922Z,4.10
2019-06-07T06:18:16.134Z,3.93
2019-06-07T06:23:14.703Z,3.20
2019-06-07T06:25:50.884Z,3.63
2019-06-07T06:28:15.889Z,3.60
2019-06-07T06:30:47.298Z,3.90
2019-06-07T06:33:33.133Z,3.70
2019-06-07T06:35:50.490Z,3.53
2019-06-07T06:38:16.961Z,4.63
2019-06-07T06:40:48.924Z,4.20
2019-06-07T06:43:16.184Z,3.90
2019-06-07T06:45:47.818Z,4.10
2019-06-07T06:48:17.430Z,2.20
2019-06-07T06:50:48.998Z,1.93
2019-06-07T06:53:15.437Z,2.20
2019-06-07T06:55:47.867Z,1.80
2019-06-07T06:58:14.066Z,2.90
2019-06-07T07:00:53.567Z,2.40
2019-06-07T07:03:56.546Z,3.50
2019-06-07T07:05:51.980Z,2.90
2019-06-07T07:08:18.603Z,4.80
2019-06-07T07:10:51.062Z,4.20
2019-06-07T07:13:18.283Z,4.20
2019-06-07T07:15:50.021Z,4.00
2019-06-07T07:18:16.946Z,4.30
2019-06-07T07:20:47.573Z,3.93
2019-06-07T07:23:15.472Z,3.50
2019-06-07T07:25:50.635Z,3.73
2019-06-07T07:28:14.062Z,4.03
2019-06-07T07:30:55.412Z,3.60
2019-06-07T07:33:23.989Z,3.27
2019-06-07T07:36:17.645Z,3.27
2019-06-07T07:38:22.488Z,3.13
2019-06-07T07:41:09.034Z,2.67
2019-06-07T07:43:21.355Z,2.80
2019-06-07T07:45:57.255Z,2.67
2019-06-07T07:48:20.335Z,2.90
2019-06-07T07:50:53.175Z,2.77
2019-06-07T07:53:18.887Z,3.83
2019-06-07T07:55:51.073Z,2.80
2019-06-07T07:58:17.505Z,2.43
2019-06-07T08:00:52.936Z,1.97
2019-06-07T08:03:16.084Z,3.07
2019-06-07T08:05:45.643Z,3.33
2019-06-07T08:08:14.655Z,3.30
2019-06-07T08:10:43.143Z,3.37
2019-06-07T08:13:24.474Z,3.00
2019-06-07T08:15:41.892Z,2.87
2019-06-07T08:18:10.453Z,2.87
2019-06-07T08:20:38.909Z,2.80
2019-06-07T08:23:07.432Z,2.83
2019-06-07T08:25:35.853Z,3.07
2019-06-07T08:28:04.732Z,2.70
2019-06-07T08:30:55.406Z,3.40
2019-06-07T08:33:24.797Z,2.97
2019-06-07T08:38:25.004Z,3.27
2019-06-07T08:40:35.476Z,3.50
2019-06-07T08:43:18.431Z,3.07
2019-06-07T08:45:34.496Z,2.47
2019-06-07T08:48:09.251Z,3.60
2019-06-07T08:50:33.086Z,3.70
2019-06-07T08:53:11.498Z,3.63
2019-06-07T08:55:31.680Z,3.17
2019-06-07T08:58:05.785Z,3.03
2019-06-07T09:00:45.660Z,3.50
2019-06-07T09:03:06.418Z,3.53
2019-06-07T09:05:30.876Z,4.27
2019-06-07T09:08:23.466Z,3.73
2019-06-07T09:10:29.438Z,3.90
2019-06-07T09:13:03.001Z,2.63
2019-06-07T09:15:28.044Z,3.20
2019-06-07T09:18:34.753Z,2.60
2019-06-07T09:20:37.022Z,2.53
2019-06-07T09:23:07.333Z,4.17
2019-06-07T09:25:29.966Z,3.07
2019-06-07T09:28:06.719Z,3.50
2019-06-07T09:30:40.467Z,2.90
2019-06-07T09:33:09.763Z,2.90
2019-06-07T09:35:40.324Z,3.50
2019-06-07T09:38:23.681Z,3.20
2019-06-07T09:40:39.544Z,3.63
2019-06-07T09:43:58.990Z,3.20
2019-06-07T09:45:38.388Z,3.20
2019-06-07T09:48:13.633Z,3.87
2019-06-07T09:50:37.134Z,3.57
2019-06-07T09:53:18.966Z,3.40
2019-06-07T09:55:36.299Z,3.87
2019-06-07T09:58:47.742Z,3.77
2019-06-07T10:00:41.017Z,3.53
2019-06-07T10:03:17.755Z,3.30
2019-06-07T10:05:36.029Z,4.30
2019-06-07T10:08:38.027Z,3.23
2019-06-07T10:13:04.136Z,3.33
2019-06-07T10:15:32.839Z,3.60
2019-06-07T10:18:01.268Z,3.33
2019-06-07T10:20:29.833Z,4.40
2019-06-07T10:22:59.571Z,3.43
2019-06-07T10:25:28.250Z,3.40
2019-06-07T10:27:56.749Z,3.87
2019-06-07T10:30:25.555Z,3.70
2019-06-07T10:32:53.915Z,3.50
2019-06-07T10:35:22.405Z,3.43
2019-06-07T10:37:50.826Z,3.80
2019-06-07T10:40:19.413Z,2.60
2019-06-07T10:42:47.848Z,2.90
2019-06-07T10:45:17.315Z,2.83
2019-06-07T10:47:45.756Z,3.27
2019-06-07T10:50:17.704Z,2.93
2019-06-07T10:52:46.107Z,3.03
2019-06-07T10:55:15.083Z,2.90
2019-06-07T10:57:43.504Z,2.90
2019-06-07T11:00:13.620Z,2.43
2019-06-07T11:02:42.258Z,2.77
2019-06-07T11:05:12.292Z,2.50
2019-06-07T11:07:41.186Z,2.37
2019-06-07T11:10:16.680Z,2.60
2019-06-07T11:12:40.382Z,2.77
2019-06-07T11:15:11.031Z,2.97
2019-06-07T11:17:39.854Z,3.00
2019-06-07T11:20:10.352Z,2.83
2019-06-07T11:22:38.842Z,3.33
2019-06-07T11:25:09.087Z,2.77
2019-06-07T11:27:37.490Z,3.33
2019-06-07T11:30:10.547Z,3.50
2019-06-07T11:32:39.481Z,3.20
2019-06-07T11:35:11.559Z,3.17
2019-06-07T11:37:39.933Z,3.13
2019-06-07T11:40:27.806Z,2.90
2019-06-07T11:42:41.119Z,3.60
2019-06-07T11:45:12.723Z,2.87
2019-06-07T11:47:40.841Z,3.80
2019-06-07T11:50:09.912Z,3.60
2019-06-07T11:52:39.290Z,3.50
2019-06-07T11:55:09.483Z,3.07
2019-06-07T11:57:39.255Z,2.80
2019-06-07T12:00:13.582Z,3.00
2019-06-07T12:02:41.997Z,3.30
2019-06-07T12:05:14.853Z,3.87
2019-06-07T12:07:41.004Z,3.70
2019-06-07T12:10:10.780Z,3.97
2019-06-07T12:12:39.330Z,4.17
2019-06-07T12:15:09.089Z,4.37
2019-06-07T12:17:37.692Z,4.33
2019-06-07T12:20:09.334Z,4.13
2019-06-07T12:22:38.097Z,4.60
2019-06-07T12:25:07.350Z,4.90
2019-06-07T12:27:35.805Z,4.07
2019-06-07T12:30:09.957Z,4.20
2019-06-07T12:32:37.158Z,4.20
2019-06-07T12:35:08.846Z,3.87
2019-06-07T12:37:43.838Z,4.20
2019-06-07T12:40:08.484Z,3.70
2019-06-07T12:42:37.793Z,3.77
2019-06-07T12:45:07.134Z,4.40
2019-06-07T12:47:35.582Z,4.50
2019-06-07T12:50:06.342Z,4.30
2019-06-07T12:52:34.763Z,4.10
2019-06-07T12:55:04.619Z,3.80
2019-06-07T12:57:33.156Z,4.20
2019-06-07T13:00:01.620Z,3.83
2019-06-07T13:02:30.065Z,4.47
2019-06-07T13:04:58.479Z,4.30
2019-06-07T13:07:27.952Z,3.93
2019-06-07T13:09:56.527Z,4.63
2019-06-07T13:12:24.938Z,4.17
2019-06-07T13:14:53.362Z,4.60
2019-06-07T13:17:22.286Z,4.83
2019-06-07T13:19:50.991Z,4.93
2019-06-07T13:22:20.401Z,5.17
2019-06-07T13:24:48.964Z,5.13
2019-06-07T13:27:18.304Z,5.33
2019-06-07T13:29:47.051Z,6.60
2019-06-07T13:32:15.723Z,6.07
2019-06-07T13:34:44.283Z,5.83
2019-06-07T13:37:12.831Z,6.53
2019-06-07T13:39:41.333Z,5.70
2019-06-07T13:42:09.764Z,7.03
2019-06-07T13:44:38.267Z,7.57
2019-06-07T13:47:06.691Z,7.33
2019-06-07T13:49:35.111Z,7.83
2019-06-07T13:52:03.529Z,7.33
2019-06-07T13:54:31.949Z,7.57
2019-06-07T13:57:02.524Z,8.47
2019-06-07T13:59:30.653Z,8.87
2019-06-07T14:01:59.076Z,9.23
2019-06-07T14:04:28.994Z,9.10
2019-06-07T14:06:57.521Z,9.23
2019-06-07T14:09:27.467Z,9.27
2019-06-07T14:11:56.288Z,9.13
2019-06-07T14:14:26.981Z,9.90
2019-06-07T14:16:55.585Z,10.17
2019-06-07T14:19:24.488Z,9.27
2019-06-07T14:21:53.262Z,9.70
2019-06-07T14:24:22.934Z,8.87
2019-06-07T14:27:06.105Z,9.70
2019-06-07T14:29:36.550Z,9.80
2019-06-07T14:32:06.728Z,12.47
2019-06-07T14:34:35.546Z,10.97
2019-06-07T14:37:04.745Z,12.20
2019-06-07T14:39:33.598Z,13.43
2019-06-07T14:42:08.975Z,13.40
2019-06-07T14:44:33.740Z,12.03
2019-06-07T14:47:02.340Z,12.97
2019-06-07T14:49:30.765Z,12.20
2019-06-07T14:51:59.189Z,11.87
2019-06-07T14:54:31.439Z,10.47
2019-06-07T14:56:57.801Z,10.43
2019-06-07T14:59:26.335Z,10.03
2019-06-07T15:01:55.220Z,9.43
2019-06-07T15:04:23.744Z,11.07
2019-06-07T15:06:52.188Z,10.20
2019-06-07T15:09:20.621Z,10.60
2019-06-07T15:11:49.046Z,9.97
2019-06-07T15:14:17.478Z,11.03
2019-06-07T15:16:45.911Z,10.87
2019-06-07T15:19:14.336Z,9.90
2019-06-07T15:21:42.800Z,12.83
2019-06-07T15:24:11.306Z,12.03
2019-06-07T15:26:39.734Z,11.03
2019-06-07T15:29:08.197Z,12.80
2019-06-07T15:31:37.195Z,12.50
2019-06-07T15:34:06.809Z,12.10
2019-06-07T15:36:36.326Z,12.57
2019-06-07T15:39:07.226Z,12.80
2019-06-07T15:41:37.376Z,12.67
2019-06-07T15:44:06.207Z,11.83
2019-06-07T15:46:35.659Z,11.47
2019-06-07T15:49:04.985Z,12.50
2019-06-07T15:51:34.469Z,11.77
2019-06-07T15:54:03.105Z,12.70
2019-06-07T15:56:32.565Z,12.90
2019-06-07T15:59:01.119Z,12.80
2019-06-07T16:01:29.559Z,13.30
2019-06-07T16:03:58.071Z,12.27
2019-06-07T16:06:26.439Z,12.00
2019-06-07T16:08:54.888Z,12.27
2019-06-07T16:11:23.333Z,12.13
2019-06-07T16:13:51.735Z,13.60
2019-06-07T16:16:20.204Z,13.10
2019-06-07T16:18:48.653Z,13.17
2019-06-07T16:21:17.122Z,12.87
2019-06-07T16:23:45.633Z,12.10
2019-06-07T16:26:14.073Z,12.00
2019-06-07T16:28:42.593Z,11.30
2019-06-07T16:31:11.010Z,11.57
2019-06-07T16:33:39.467Z,11.83
2019-06-07T16:36:07.878Z,12.07
2019-06-07T16:38:36.382Z,11.90
2019-06-07T16:41:05.373Z,12.77
2019-06-07T16:43:33.810Z,13.13
2019-06-07T16:46:02.244Z,13.00
2019-06-07T16:48:30.677Z,12.23
2019-06-07T16:50:59.165Z,12.70
2019-06-07T16:53:27.643Z,11.23
2019-06-07T16:55:56.108Z,11.00
2019-06-07T16:58:24.563Z,12.03
2019-06-07T17:00:53.511Z,10.00
2019-06-07T17:03:21.928Z,11.80
2019-06-07T17:05:50.668Z,11.70
2019-06-07T17:08:19.439Z,9.90
2019-06-07T17:10:49.092Z,10.17
2019-06-07T17:13:32.423Z,12.07
2019-06-07T17:15:48.979Z,11.40
2019-06-07T17:18:17.510Z,11.00
2019-06-07T17:20:47.322Z,11.43
2019-06-07T17:23:16.118Z,11.53
2019-06-07T17:25:45.458Z,11.20
2019-06-07T17:28:14.494Z,11.93
2019-06-07T17:30:43.992Z,10.23
2019-06-07T17:33:12.631Z,11.00
2019-06-07T17:35:42.218Z,11.53
2019-06-07T17:38:10.624Z,9.93
2019-06-07T17:40:39.129Z,10.10
2019-06-07T17:43:07.569Z,9.43
2019-06-07T17:45:36.092Z,10.27
2019-06-07T17:48:04.572Z,9.40
2019-06-07T17:50:32.963Z,9.97
2019-06-07T17:53:01.405Z,10.40
2019-06-07T17:55:29.910Z,9.53
2019-06-07T17:57:58.351Z,9.53
2019-06-07T18:00:31.331Z,10.03
2019-06-07T18:02:59.972Z,9.50
2019-06-07T18:05:28.421Z,9.90
2019-06-07T18:07:58.803Z,9.07
2019-06-07T18:10:36.383Z,9.20
2019-06-07T18:13:06.367Z,8.83
2019-06-07T18:15:40.543Z,9.97
2019-06-07T18:18:09.681Z,8.57
2019-06-07T18:20:38.199Z,8.97
2019-06-07T18:23:07.119Z,9.07
2019-06-07T18:25:35.667Z,8.70
2019-06-07T18:28:03.178Z,8.23
2019-06-07T18:30:31.821Z,9.30
2019-06-07T18:33:00.406Z,8.87
2019-06-07T18:35:28.909Z,8.30
2019-06-07T18:37:57.323Z,7.93
2019-06-07T18:40:25.823Z,7.70
2019-06-07T18:42:55.259Z,8.07
2019-06-07T18:45:23.731Z,7.90
2019-06-07T18:47:53.464Z,7.67
2019-06-07T18:50:22.231Z,8.03
2019-06-07T18:52:50.920Z,8.00
2019-06-07T18:55:20.877Z,8.90
2019-06-07T18:57:50.195Z,8.50
2019-06-07T19:00:21.201Z,8.63
2019-06-07T19:02:49.791Z,7.87
2019-06-07T19:05:18.823Z,8.30
2019-06-07T19:07:48.390Z,8.23
2019-06-07T19:10:19.554Z,7.70
2019-06-07T19:12:48.932Z,8.17
2019-06-07T19:15:18.795Z,8.53
2019-06-07T19:17:47.282Z,8.17
2019-06-07T19:20:16.848Z,8.30
2019-06-07T19:22:45.353Z,7.97
2019-06-07T19:25:14.876Z,8.20
2019-06-07T19:27:43.326Z,8.53
2019-06-07T19:30:13.354Z,7.90
2019-06-07T19:32:41.783Z,7.70
2019-06-07T19:35:11.118Z,7.13
2019-06-07T19:37:39.549Z,7.40
2019-06-07T19:40:09.113Z,7.90
2019-06-07T19:42:37.610Z,7.93
2019-06-07T19:45:29.018Z,8.07
2019-06-07T19:47:38.206Z,7.50
2019-06-07T19:50:07.848Z,7.43
2019-06-07T19:52:36.470Z,8.33
2019-06-07T19:55:09.844Z,7.13
2019-06-07T19:57:37.187Z,7.00
2019-06-07T20:00:13.584Z,7.67
2019-06-07T20:02:37.371Z,7.27
2019-06-07T20:05:08.814Z,8.00
2019-06-07T20:07:37.267Z,7.47
2019-06-07T20:10:09.140Z,8.27
2019-06-07T20:12:37.663Z,7.77
2019-06-07T20:15:27.695Z,7.77
2019-06-07T20:17:40.706Z,8.73
2019-06-07T20:20:10.160Z,8.50
2019-06-07T20:22:38.657Z,7.43
2019-06-07T20:25:07.519Z,7.53
2019-06-07T20:27:36.006Z,7.43
2019-06-07T20:30:07.086Z,7.93
2019-06-07T20:32:35.516Z,8.33
2019-06-07T20:35:06.001Z,7.13
2019-06-07T20:37:34.506Z,7.97
2019-06-07T20:40:21.779Z,7.17
2019-06-07T20:42:33.937Z,7.37
2019-06-07T20:45:03.843Z,7.50
2019-06-07T20:47:32.637Z,7.20
2019-06-07T20:50:02.387Z,7.67
2019-06-07T20:52:30.878Z,9.37
2019-06-07T20:55:00.569Z,11.83
2019-06-07T20:57:29.226Z,4.73
2019-06-07T20:59:58.814Z,2.77
2019-06-07T21:02:27.459Z,2.10
2019-06-07T21:04:55.882Z,1.50
2019-06-07T21:07:24.314Z,1.77
2019-06-07T21:09:52.745Z,1.30
2019-06-07T21:12:21.168Z,1.37
2019-06-07T21:14:49.584Z,2.20
2019-06-07T21:17:18.036Z,2.40
2019-06-07T21:19:46.466Z,2.07
2019-06-07T21:22:14.893Z,2.53
2019-06-07T21:24:43.348Z,3.53
2019-06-07T21:27:11.751Z,2.57
2019-06-07T21:29:40.250Z,3.87
2019-06-07T21:32:09.605Z,3.17
2019-06-07T21:34:38.297Z,3.77
2019-06-07T21:37:07.892Z,3.97
2019-06-07T21:39:36.535Z,3.47
2019-06-07T21:42:06.046Z,3.93
2019-06-07T21:44:34.677Z,3.80
2019-06-07T21:47:04.206Z,3.63
2019-06-07T21:49:32.876Z,3.33
2019-06-07T21:52:02.477Z,3.60
2019-06-07T21:54:31.188Z,3.83
2019-06-07T21:56:59.627Z,3.67
2019-06-07T21:59:28.039Z,3.90
2019-06-07T22:01:56.479Z,3.47
2019-06-07T22:04:24.940Z,3.77
2019-06-07T22:06:53.358Z,3.10
2019-06-07T22:09:21.843Z,3.47
2019-06-07T22:11:50.267Z,3.00
2019-06-07T22:14:18.680Z,2.63
2019-06-07T22:16:47.169Z,2.83
2019-06-07T22:19:15.590Z,2.50
2019-06-07T22:21:44.016Z,3.10
2019-06-07T22:24:13.111Z,2.60
2019-06-07T22:26:41.617Z,2.40
2019-06-07T22:29:10.313Z,2.60
2019-06-07T22:31:38.970Z,2.77
2019-06-07T22:34:08.681Z,2.50
2019-06-07T22:36:37.305Z,2.50
2019-06-07T22:39:07.609Z,2.53
2019-06-07T22:41:36.280Z,2.47
2019-06-07T22:44:04.745Z,2.43
2019-06-07T22:46:37.686Z,2.67
2019-06-07T22:49:05.049Z,2.47
2019-06-07T22:51:33.455Z,2.53
2019-06-07T22:54:01.938Z,2.37
2019-06-07T22:56:40.817Z,2.80
2019-06-07T22:59:13.652Z,2.40
2019-06-07T23:01:39.402Z,3.10
2019-06-07T23:04:08.403Z,2.60
2019-06-07T23:06:37.235Z,2.50
2019-06-07T23:09:07.280Z,2.33
2019-06-07T23:11:35.702Z,2.80
2019-06-07T23:14:04.388Z,2.67
2019-06-07T23:16:32.852Z,3.10
2019-06-07T23:19:01.263Z,2.57
2019-06-07T23:21:30.498Z,3.23
2019-06-07T23:23:59.063Z,3.03
2019-06-07T23:26:27.448Z,3.43
2019-06-07T23:28:56.591Z,4.13
2019-06-07T23:31:25.016Z,4.20
2019-06-07T23:33:53.511Z,4.40
2019-06-07T23:36:21.956Z,4.43
2019-06-07T23:38:50.370Z,4.80
2019-06-07T23:41:20.390Z,4.03
2019-06-07T23:43:48.959Z,3.53
2019-06-07T23:46:17.509Z,3.60
2019-06-07T23:48:45.883Z,3.67
2019-06-07T23:51:15.534Z,3.50
2019-06-07T23:53:44.197Z,3.07
2019-06-07T23:56:13.704Z,3.00
2019-06-07T23:58:42.430Z,2.90
